»·PEaware :: UAL511 KSFO-KSEA

UAL511 :: KSFO-KSEA

FLIGHT INFORMATION

Flight Status: Arrived
Operator:
United Airlines
More flights by this operator :: More flights under this callsign
Pilot: Dave M. (4986)
Aircraft: BOEING 737-200
(B732)
More flights by this aircraft type
Origin: KSFO San Francisco Intl
United States
Destination: KSEA Seattle-Tacoma Intl
United States
More flights between these airports :: More routes between these airports
Route: +MOLEN8 ENI J143 EUG OLM2
File this flight plan on PilotEdge
Remarks: PBN / A1B2 NAV / RNVD1E2A1 REG / N9063U EET / KZSE0037 RMK / SIMBRIEF
Altitude:
(Current/Filed)
28,000ft
Speed:
(Current/Filed)
436kts
Departed: 24-Jan-18 08:59 PM
Arrived: 24-Jan-18 10:36 PM
Distance/Time
Traveled:
589nm/1:37
Distance/Time
To Go:
Arrived

Flight Plot

Page will automatically refresh every two minutes.

Flight plan parsing failed; only flown route is shown


Map Options




Map Legend


Flown Route
Filed Route
Departure Airport
Arrival Airport
Navaid (VOR, NDB)
Fix

Horizontal Profiles

Position Reports

Time Latitude Longitude Heading Altitude Ground
Speed
24-Jan-18 20:33 37.621089 -122.390674 118 21ft 0kts
24-Jan-18 20:34 37.621089 -122.390674 118 21ft 0kts
24-Jan-18 20:35 37.621089 -122.390674 118 21ft 0kts
24-Jan-18 20:36 37.621089 -122.390674 118 21ft 0kts
24-Jan-18 20:37 37.621089 -122.390674 118 21ft 0kts
24-Jan-18 20:38 37.621089 -122.390674 118 21ft 0kts
24-Jan-18 20:39 37.621089 -122.390674 118 20ft 0kts
24-Jan-18 20:40 37.621089 -122.390674 118 20ft 0kts
24-Jan-18 20:41 37.621089 -122.390674 118 20ft 0kts
24-Jan-18 20:42 37.621089 -122.390674 118 20ft 0kts
24-Jan-18 20:43 37.621089 -122.390674 118 20ft 0kts
24-Jan-18 20:44 37.621089 -122.390674 118 20ft 0kts
24-Jan-18 20:45 37.621089 -122.390674 118 20ft 0kts
24-Jan-18 20:46 37.621089 -122.390675 118 20ft 0kts
24-Jan-18 20:47 37.621275 -122.391239 92 20ft 2kts
24-Jan-18 20:48 37.621012 -122.391869 30 20ft 1kts
24-Jan-18 20:49 37.620952 -122.391909 27 20ft 0kts
24-Jan-18 20:50 37.620952 -122.391909 27 20ft 0kts
24-Jan-18 20:51 37.620952 -122.391909 27 20ft 0kts
24-Jan-18 20:52 37.621929 -122.391268 28 20ft 8kts
24-Jan-18 20:53 37.622521 -122.388843 117 20ft 6kts
24-Jan-18 20:54 37.621457 -122.386311 118 20ft 8kts
24-Jan-18 20:55 37.620503 -122.384025 117 20ft 5kts
24-Jan-18 20:56 37.619443 -122.381533 118 20ft 12kts
24-Jan-18 20:57 37.618011 -122.377773 111 20ft 11kts
24-Jan-18 20:58 37.616069 -122.372421 118 20ft 17kts
24-Jan-18 20:59 37.613723 -122.367863 127 20ft 13kts
24-Jan-18 21:00 37.612151 -122.364213 118 20ft 10kts
24-Jan-18 21:01 37.610945 -122.361369 118 20ft 12kts
24-Jan-18 21:02 37.610656 -122.359440 56 20ft 0kts
24-Jan-18 21:03 37.610656 -122.359440 56 20ft 0kts
24-Jan-18 21:04 37.611419 -122.358767 29 20ft 11kts
24-Jan-18 21:05 37.616822 -122.370537 297 21ft 135kts
24-Jan-18 21:06 37.644414 -122.425354 306 1719ft 212kts
24-Jan-18 21:07 37.680558 -122.488095 301 4626ft 234kts
24-Jan-18 21:08 37.716723 -122.555485 296 7809ft 233kts
24-Jan-18 21:09 37.754749 -122.627481 297 9536ft 288kts
24-Jan-18 21:10 37.801232 -122.716209 296 12112ft 309kts
24-Jan-18 21:11 37.849232 -122.807585 296 14640ft 319kts
24-Jan-18 21:12 37.898964 -122.902139 295 16880ft 327kts
24-Jan-18 21:13 37.950003 -122.999400 296 18829ft 336kts
24-Jan-18 21:14 38.003493 -123.097821 310 20507ft 355kts
24-Jan-18 21:15 38.105531 -123.118391 354 21949ft 401kts
24-Jan-18 21:16 38.214645 -123.126555 346 23227ft 402kts
24-Jan-18 21:17 38.326141 -123.144164 344 24398ft 408kts
24-Jan-18 21:18 38.438885 -123.163799 344 25452ft 413kts
24-Jan-18 21:19 38.553528 -123.184265 343 26393ft 419kts
24-Jan-18 21:20 38.669455 -123.204893 343 27245ft 425kts
24-Jan-18 21:21 38.786006 -123.225838 343 28005ft 429kts
24-Jan-18 21:22 38.907012 -123.248007 343 28039ft 450kts
24-Jan-18 21:23 39.027570 -123.271022 354 28030ft 475kts
24-Jan-18 21:24 39.157864 -123.271963 352 28033ft 486kts
24-Jan-18 21:25 39.292472 -123.279326 354 28032ft 488kts
24-Jan-18 21:26 39.427909 -123.282265 353 28034ft 489kts
24-Jan-18 21:27 39.562739 -123.285304 353 28033ft 483kts
24-Jan-18 21:28 39.696439 -123.288372 353 28034ft 480kts
24-Jan-18 21:29 39.829020 -123.291438 353 28036ft 478kts
24-Jan-18 21:30 39.961751 -123.294522 353 28037ft 478kts
24-Jan-18 21:31 40.094413 -123.297612 353 28031ft 479kts
24-Jan-18 21:32 40.224474 -123.300627 353 28014ft 479kts
24-Jan-18 21:33 40.357355 -123.303743 353 28011ft 478kts
24-Jan-18 21:34 40.489874 -123.306865 353 28012ft 478kts
24-Jan-18 21:35 40.622514 -123.310008 353 28014ft 478kts
24-Jan-18 21:36 40.755412 -123.313175 353 28002ft 478kts
24-Jan-18 21:37 40.887774 -123.316338 353 27995ft 479kts
24-Jan-18 21:38 41.020814 -123.319546 353 27992ft 479kts
24-Jan-18 21:39 41.150185 -123.322658 354 27980ft 481kts
24-Jan-18 21:40 41.283289 -123.325862 354 27982ft 481kts
24-Jan-18 21:41 41.416888 -123.329112 354 27984ft 482kts
24-Jan-18 21:42 41.550921 -123.332406 354 27973ft 483kts
24-Jan-18 21:43 41.685024 -123.335688 354 27949ft 484kts
24-Jan-18 21:44 41.818974 -123.338995 354 27926ft 485kts
24-Jan-18 21:45 41.953659 -123.342335 354 27928ft 486kts
24-Jan-18 21:46 42.088707 -123.345701 354 27929ft 487kts
24-Jan-18 21:47 42.220676 -123.348944 354 27921ft 486kts
24-Jan-18 21:48 42.355567 -123.352328 354 27922ft 486kts
24-Jan-18 21:49 42.468219 -123.352321 355 27924ft 487kts
24-Jan-18 21:50 42.625942 -123.340377 355 27920ft 487kts
24-Jan-18 21:51 42.738594 -123.341198 354 27910ft 487kts
24-Jan-18 21:52 42.873433 -123.344088 354 27909ft 487kts
24-Jan-18 21:53 43.008985 -123.347368 354 27910ft 488kts
24-Jan-18 21:54 43.142316 -123.351367 354 27902ft 489kts
24-Jan-18 21:55 43.278044 -123.342572 359 27905ft 491kts
24-Jan-18 21:56 43.414339 -123.324318 2 27905ft 493kts
24-Jan-18 21:57 43.550425 -123.304753 2 27906ft 493kts
24-Jan-18 21:58 43.686533 -123.285236 2 27903ft 494kts
24-Jan-18 21:59 43.822826 -123.265635 2 27894ft 495kts
24-Jan-18 22:00 43.959561 -123.246041 1 27893ft 495kts
24-Jan-18 22:01 44.095501 -123.228941 1 27894ft 496kts
24-Jan-18 22:02 44.230361 -123.214707 358 27887ft 494kts
24-Jan-18 22:03 44.367138 -123.194736 4 27879ft 497kts
24-Jan-18 22:04 44.502866 -123.166306 5 27871ft 498kts
24-Jan-18 22:05 44.638982 -123.136632 5 27872ft 498kts
24-Jan-18 22:06 44.775500 -123.106626 5 27853ft 499kts
24-Jan-18 22:07 44.912359 -123.076375 5 27848ft 499kts
24-Jan-18 22:08 45.049131 -123.046062 6 27843ft 500kts
24-Jan-18 22:09 45.185278 -123.016012 5 27826ft 500kts
24-Jan-18 22:10 45.321977 -122.988102 5 27826ft 500kts
24-Jan-18 22:11 45.459295 -122.962674 357 27813ft 497kts
24-Jan-18 22:12 45.595850 -122.962855 356 27808ft 497kts
24-Jan-18 22:13 45.732647 -122.960018 358 27810ft 498kts
24-Jan-18 22:14 45.869584 -122.953798 358 27811ft 498kts
24-Jan-18 22:15 46.006828 -122.947307 358 27845ft 498kts
24-Jan-18 22:16 46.131399 -122.941241 358 27831ft 499kts
24-Jan-18 22:17 46.262007 -122.934314 358 27483ft 453kts
24-Jan-18 22:18 46.385114 -122.926680 358 25368ft 440kts
24-Jan-18 22:19 46.502638 -122.918536 358 23404ft 425kts
24-Jan-18 22:20 46.616854 -122.910235 358 21476ft 410kts
24-Jan-18 22:21 46.726605 -122.910746 354 19608ft 395kts
24-Jan-18 22:22 46.832360 -122.912964 354 17793ft 383kts
24-Jan-18 22:23 46.935111 -122.913490 355 16782ft 370kts
24-Jan-18 22:24 47.023439 -122.850025 59 16801ft 380kts
24-Jan-18 22:25 47.094465 -122.741076 41 16149ft 374kts
24-Jan-18 22:26 47.168293 -122.649988 42 14578ft 363kts
24-Jan-18 22:27 47.241765 -122.556261 42 12766ft 348kts
24-Jan-18 22:28 47.314976 -122.477805 6 11648ft 329kts
24-Jan-18 22:29 47.403100 -122.472425 358 10087ft 314kts
24-Jan-18 22:30 47.486646 -122.469679 358 7683ft 312kts
24-Jan-18 22:31 47.558453 -122.467890 358 5770ft 300kts
24-Jan-18 22:32 47.637139 -122.466468 358 4175ft 275kts
24-Jan-18 22:33 47.707320 -122.456965 37 4003ft 251kts
24-Jan-18 22:34 47.725318 -122.372562 109 3930ft 197kts
24-Jan-18 22:35 47.692513 -122.323285 147 4008ft 185kts
24-Jan-18 22:36 47.643717 -122.307549 187 4114ft 186kts
24-Jan-18 22:37 47.601434 -122.309504 186 3467ft 142kts
24-Jan-18 22:38 47.570100 -122.310038 186 2399ft 134kts
24-Jan-18 22:39 47.529316 -122.310467 180 1686ft 159kts
24-Jan-18 22:40 47.487148 -122.310814 180 811ft 135kts
24-Jan-18 22:41 47.453296 -122.311068 180 336ft 82kts
24-Jan-18 22:42 47.445916 -122.307753 95 335ft 17kts
24-Jan-18 22:43 47.443268 -122.306341 181 335ft 10kts
24-Jan-18 22:44 47.440494 -122.306357 180 335ft 10kts
24-Jan-18 22:45 47.440450 -122.301699 92 335ft 13kts
24-Jan-18 22:46 47.439308 -122.298209 90 335ft 0kts

Navigation Log

Ident Type
Flight plan parsing failed, navigation log unavailable